sensor_id;sensor_type;location;lat;lon;timestamp;temperature;humidity
15099;DHT22;33900;53.640;9.942;2022-09-29T00:01:07;11.70;90.80
15099;DHT22;33900;53.640;9.942;2022-09-29T00:03:32;11.70;90.40
15099;DHT22;33900;53.640;9.942;2022-09-29T00:05:58;11.70;90.50
15099;DHT22;33900;53.640;9.942;2022-09-29T00:08:25;11.70;90.70
15099;DHT22;33900;53.640;9.942;2022-09-29T00:10:51;11.60;90.40
15099;DHT22;33900;53.640;9.942;2022-09-29T00:13:16;11.60;90.40
15099;DHT22;33900;53.640;9.942;2022-09-29T00:15:42;11.70;90.40
15099;DHT22;33900;53.640;9.942;2022-09-29T00:18:10;11.60;90.70
15099;DHT22;33900;53.640;9.942;2022-09-29T00:20:37;11.60;90.40
15099;DHT22;33900;53.640;9.942;2022-09-29T00:23:03;11.60;90.40
15099;DHT22;33900;53.640;9.942;2022-09-29T00:25:28;11.50;90.30
15099;DHT22;33900;53.640;9.942;2022-09-29T00:27:54;11.50;90.30
15099;DHT22;33900;53.640;9.942;2022-09-29T00:30:23;11.50;90.30
15099;DHT22;33900;53.640;9.942;2022-09-29T00:32:49;11.50;90.60
15099;DHT22;33900;53.640;9.942;2022-09-29T00:35:15;11.50;90.30
15099;DHT22;33900;53.640;9.942;2022-09-29T00:37:42;11.50;90.30
15099;DHT22;33900;53.640;9.942;2022-09-29T00:40:11;11.40;90.30
15099;DHT22;33900;53.640;9.942;2022-09-29T00:42:39;11.40;90.30
15099;DHT22;33900;53.640;9.942;2022-09-29T00:45:12;11.40;90.30
15099;DHT22;33900;53.640;9.942;2022-09-29T00:47:39;11.40;90.30
15099;DHT22;33900;53.640;9.942;2022-09-29T00:50:15;11.30;90.30
15099;DHT22;33900;53.640;9.942;2022-09-29T00:52:44;11.40;90.40
15099;DHT22;33900;53.640;9.942;2022-09-29T00:55:16;11.40;90.40
15099;DHT22;33900;53.640;9.942;2022-09-29T00:57:48;11.30;90.40
15099;DHT22;33900;53.640;9.942;2022-09-29T01:00:16;11.30;90.40
15099;DHT22;33900;53.640;9.942;2022-09-29T01:02:46;11.30;90.40
15099;DHT22;33900;53.640;9.942;2022-09-29T01:05:15;11.30;90.80
15099;DHT22;33900;53.640;9.942;2022-09-29T01:07:45;11.30;90.40
15099;DHT22;33900;53.640;9.942;2022-09-29T01:10:12;11.20;90.50
15099;DHT22;33900;53.640;9.942;2022-09-29T01:12:39;11.20;90.50
15099;DHT22;33900;53.640;9.942;2022-09-29T01:15:05;11.30;90.50
15099;DHT22;33900;53.640;9.942;2022-09-29T01:17:31;11.20;90.50
15099;DHT22;33900;53.640;9.942;2022-09-29T01:22:48;11.20;90.50
15099;DHT22;33900;53.640;9.942;2022-09-29T01:33:27;11.10;90.60
15099;DHT22;33900;53.640;9.942;2022-09-29T01:43:41;11.10;90.70
15099;DHT22;33900;53.640;9.942;2022-09-29T01:46:10;11.10;90.70
15099;DHT22;33900;53.640;9.942;2022-09-29T01:48:42;11.10;90.70
15099;DHT22;33900;53.640;9.942;2022-09-29T01:51:10;11.10;90.70
15099;DHT22;33900;53.640;9.942;2022-09-29T01:53:51;11.10;90.70
15099;DHT22;33900;53.640;9.942;2022-09-29T01:56:25;11.10;90.70
15099;DHT22;33900;53.640;9.942;2022-09-29T01:58:54;11.10;90.70
15099;DHT22;33900;53.640;9.942;2022-09-29T02:01:23;11.10;90.70
15099;DHT22;33900;53.640;9.942;2022-09-29T02:03:52;11.10;90.70
15099;DHT22;33900;53.640;9.942;2022-09-29T02:06:31;11.10;90.70
15099;DHT22;33900;53.640;9.942;2022-09-29T02:12:14;11.00;90.70
15099;DHT22;33900;53.640;9.942;2022-09-29T02:14:42;11.00;90.60
15099;DHT22;33900;53.640;9.942;2022-09-29T02:17:19;11.00;90.60
15099;DHT22;33900;53.640;9.942;2022-09-29T02:19:46;11.00;90.70
15099;DHT22;33900;53.640;9.942;2022-09-29T02:22:14;11.00;90.60
15099;DHT22;33900;53.640;9.942;2022-09-29T02:24:40;11.00;90.60
15099;DHT22;33900;53.640;9.942;2022-09-29T02:27:10;11.00;90.70
15099;DHT22;33900;53.640;9.942;2022-09-29T02:29:36;10.90;90.60
15099;DHT22;33900;53.640;9.942;2022-09-29T02:32:03;10.90;90.60
15099;DHT22;33900;53.640;9.942;2022-09-29T02:34:35;10.90;90.60
15099;DHT22;33900;53.640;9.942;2022-09-29T02:37:19;10.90;90.60
15099;DHT22;33900;53.640;9.942;2022-09-29T02:42:34;10.90;90.60
15099;DHT22;33900;53.640;9.942;2022-09-29T02:50:30;10.90;90.70
15099;DHT22;33900;53.640;9.942;2022-09-29T02:55:30;10.80;90.70
15099;DHT22;33900;53.640;9.942;2022-09-29T02:58:05;10.80;90.70
15099;DHT22;33900;53.640;9.942;2022-09-29T03:00:32;10.80;90.70
15099;DHT22;33900;53.640;9.942;2022-09-29T03:03:01;10.80;90.60
15099;DHT22;33900;53.640;9.942;2022-09-29T03:05:27;10.80;90.60
15099;DHT22;33900;53.640;9.942;2022-09-29T03:07:53;10.70;90.60
15099;DHT22;33900;53.640;9.942;2022-09-29T03:10:20;10.80;90.70
15099;DHT22;33900;53.640;9.942;2022-09-29T03:12:51;10.70;90.60
15099;DHT22;33900;53.640;9.942;2022-09-29T03:15:18;10.70;90.60
15099;DHT22;33900;53.640;9.942;2022-09-29T03:17:44;10.70;90.60
15099;DHT22;33900;53.640;9.942;2022-09-29T03:20:10;10.70;90.60
15099;DHT22;33900;53.640;9.942;2022-09-29T03:22:54;10.70;90.60
15099;DHT22;33900;53.640;9.942;2022-09-29T03:25:23;10.70;90.60
15099;DHT22;33900;53.640;9.942;2022-09-29T03:27:50;10.70;90.60
15099;DHT22;33900;53.640;9.942;2022-09-29T03:30:16;10.60;90.50
15099;DHT22;33900;53.640;9.942;2022-09-29T03:32:42;10.60;90.50
15099;DHT22;33900;53.640;9.942;2022-09-29T03:35:08;10.60;90.50
15099;DHT22;33900;53.640;9.942;2022-09-29T03:37:34;10.60;90.50
15099;DHT22;33900;53.640;9.942;2022-09-29T03:40:01;10.60;90.50
15099;DHT22;33900;53.640;9.942;2022-09-29T03:42:27;10.60;90.60
15099;DHT22;33900;53.640;9.942;2022-09-29T03:44:53;10.60;90.60
15099;DHT22;33900;53.640;9.942;2022-09-29T03:47:19;10.60;90.60
15099;DHT22;33900;53.640;9.942;2022-09-29T03:49:45;10.50;90.70
15099;DHT22;33900;53.640;9.942;2022-09-29T03:52:11;10.50;90.70
15099;DHT22;33900;53.640;9.942;2022-09-29T03:54:39;10.60;90.70
15099;DHT22;33900;53.640;9.942;2022-09-29T03:57:05;10.50;90.70
15099;DHT22;33900;53.640;9.942;2022-09-29T03:59:31;10.50;90.70
15099;DHT22;33900;53.640;9.942;2022-09-29T04:01:57;10.50;90.70
15099;DHT22;33900;53.640;9.942;2022-09-29T04:04:22;10.60;90.80
15099;DHT22;33900;53.640;9.942;2022-09-29T04:06:51;10.50;90.70
15099;DHT22;33900;53.640;9.942;2022-09-29T04:09:17;10.50;90.80
15099;DHT22;33900;53.640;9.942;2022-09-29T04:11:43;10.60;90.80
15099;DHT22;33900;53.640;9.942;2022-09-29T04:14:09;10.50;90.80
15099;DHT22;33900;53.640;9.942;2022-09-29T04:16:34;10.50;90.80
15099;DHT22;33900;53.640;9.942;2022-09-29T04:19:00;10.50;90.80
15099;DHT22;33900;53.640;9.942;2022-09-29T04:21:26;10.50;90.80
15099;DHT22;33900;53.640;9.942;2022-09-29T04:23:52;10.50;90.80
15099;DHT22;33900;53.640;9.942;2022-09-29T04:26:18;10.50;90.90
15099;DHT22;33900;53.640;9.942;2022-09-29T04:28:45;10.60;91.00
15099;DHT22;33900;53.640;9.942;2022-09-29T04:31:11;10.50;90.90
15099;DHT22;33900;53.640;9.942;2022-09-29T04:33:40;10.50;90.90
15099;DHT22;33900;53.640;9.942;2022-09-29T04:36:06;10.50;90.90
15099;DHT22;33900;53.640;9.942;2022-09-29T04:38:31;10.60;91.00
15099;DHT22;33900;53.640;9.942;2022-09-29T04:41:00;10.50;91.00
15099;DHT22;33900;53.640;9.942;2022-09-29T04:43:26;10.60;91.00
15099;DHT22;33900;53.640;9.942;2022-09-29T04:45:52;10.50;91.00
15099;DHT22;33900;53.640;9.942;2022-09-29T04:48:18;10.60;91.10
15099;DHT22;33900;53.640;9.942;2022-09-29T04:50:44;10.60;91.10
15099;DHT22;33900;53.640;9.942;2022-09-29T04:53:10;10.60;91.10
15099;DHT22;33900;53.640;9.942;2022-09-29T04:55:36;10.60;91.10
15099;DHT22;33900;53.640;9.942;2022-09-29T04:58:03;10.60;91.10
15099;DHT22;33900;53.640;9.942;2022-09-29T05:00:29;10.60;91.20
15099;DHT22;33900;53.640;9.942;2022-09-29T05:02:56;10.60;91.20
15099;DHT22;33900;53.640;9.942;2022-09-29T05:05:23;10.60;91.20
15099;DHT22;33900;53.640;9.942;2022-09-29T05:07:49;10.60;91.20
15099;DHT22;33900;53.640;9.942;2022-09-29T05:10:15;10.60;91.30
15099;DHT22;33900;53.640;9.942;2022-09-29T05:12:45;10.60;91.30
15099;DHT22;33900;53.640;9.942;2022-09-29T05:15:11;10.60;91.30
15099;DHT22;33900;53.640;9.942;2022-09-29T05:17:37;10.60;91.30
15099;DHT22;33900;53.640;9.942;2022-09-29T05:20:03;10.60;91.40
15099;DHT22;33900;53.640;9.942;2022-09-29T05:22:30;10.60;91.30
15099;DHT22;33900;53.640;9.942;2022-09-29T05:24:59;10.60;91.30
15099;DHT22;33900;53.640;9.942;2022-09-29T05:27:25;10.60;91.30
15099;DHT22;33900;53.640;9.942;2022-09-29T05:29:54;10.60;91.40
15099;DHT22;33900;53.640;9.942;2022-09-29T05:32:20;10.70;91.40
15099;DHT22;33900;53.640;9.942;2022-09-29T05:34:46;10.70;91.50
15099;DHT22;33900;53.640;9.942;2022-09-29T05:37:14;10.70;91.50
15099;DHT22;33900;53.640;9.942;2022-09-29T05:39:40;10.70;91.50
15099;DHT22;33900;53.640;9.942;2022-09-29T05:42:09;10.70;91.50
15099;DHT22;33900;53.640;9.942;2022-09-29T05:44:35;10.70;91.60
15099;DHT22;33900;53.640;9.942;2022-09-29T05:47:01;10.70;91.60
15099;DHT22;33900;53.640;9.942;2022-09-29T05:49:27;10.70;91.60
15099;DHT22;33900;53.640;9.942;2022-09-29T05:51:55;10.80;91.60
15099;DHT22;33900;53.640;9.942;2022-09-29T05:54:21;10.80;91.70
15099;DHT22;33900;53.640;9.942;2022-09-29T05:56:48;10.80;91.70
15099;DHT22;33900;53.640;9.942;2022-09-29T05:59:14;10.80;91.70
15099;DHT22;33900;53.640;9.942;2022-09-29T06:01:40;10.90;91.70
15099;DHT22;33900;53.640;9.942;2022-09-29T06:04:06;10.90;91.80
15099;DHT22;33900;53.640;9.942;2022-09-29T06:06:32;10.90;91.70
15099;DHT22;33900;53.640;9.942;2022-09-29T06:09:00;10.90;91.80
15099;DHT22;33900;53.640;9.942;2022-09-29T06:11:32;10.90;91.80
15099;DHT22;33900;53.640;9.942;2022-09-29T06:14:00;11.00;91.90
15099;DHT22;33900;53.640;9.942;2022-09-29T06:16:26;11.00;91.90
15099;DHT22;33900;53.640;9.942;2022-09-29T06:18:53;11.00;91.90
15099;DHT22;33900;53.640;9.942;2022-09-29T06:21:28;11.00;91.90
15099;DHT22;33900;53.640;9.942;2022-09-29T06:23:55;11.10;92.00
15099;DHT22;33900;53.640;9.942;2022-09-29T06:26:22;11.10;92.00
15099;DHT22;33900;53.640;9.942;2022-09-29T06:28:51;11.10;92.00
15099;DHT22;33900;53.640;9.942;2022-09-29T06:31:19;11.10;92.00
15099;DHT22;33900;53.640;9.942;2022-09-29T06:33:49;11.20;92.10
15099;DHT22;33900;53.640;9.942;2022-09-29T06:36:26;11.20;92.10
15099;DHT22;33900;53.640;9.942;2022-09-29T06:39:11;11.20;92.10
15099;DHT22;33900;53.640;9.942;2022-09-29T06:41:37;11.30;92.10
15099;DHT22;33900;53.640;9.942;2022-09-29T06:44:09;11.30;92.10
15099;DHT22;33900;53.640;9.942;2022-09-29T06:46:36;11.30;92.10
15099;DHT22;33900;53.640;9.942;2022-09-29T06:49:02;11.30;92.10
15099;DHT22;33900;53.640;9.942;2022-09-29T06:51:27;11.40;92.20
15099;DHT22;33900;53.640;9.942;2022-09-29T06:53:54;11.40;92.20
15099;DHT22;33900;53.640;9.942;2022-09-29T06:56:25;11.40;92.20
15099;DHT22;33900;53.640;9.942;2022-09-29T06:58:51;11.50;92.20
15099;DHT22;33900;53.640;9.942;2022-09-29T07:01:18;11.50;92.30
15099;DHT22;33900;53.640;9.942;2022-09-29T07:03:44;11.50;92.20
15099;DHT22;33900;53.640;9.942;2022-09-29T07:06:10;11.50;92.20
15099;DHT22;33900;53.640;9.942;2022-09-29T07:08:36;11.60;92.30
15099;DHT22;33900;53.640;9.942;2022-09-29T07:11:04;11.60;92.20
15099;DHT22;33900;53.640;9.942;2022-09-29T07:13:30;11.60;92.30
15099;DHT22;33900;53.640;9.942;2022-09-29T07:16:10;11.70;92.30
15099;DHT22;33900;53.640;9.942;2022-09-29T07:18:37;11.70;92.30
15099;DHT22;33900;53.640;9.942;2022-09-29T07:21:07;11.70;92.30
15099;DHT22;33900;53.640;9.942;2022-09-29T07:23:35;11.70;92.30
15099;DHT22;33900;53.640;9.942;2022-09-29T07:26:02;11.80;92.30
15099;DHT22;33900;53.640;9.942;2022-09-29T07:28:28;11.80;92.30
15099;DHT22;33900;53.640;9.942;2022-09-29T07:30:58;11.80;92.30
15099;DHT22;33900;53.640;9.942;2022-09-29T07:33:25;11.90;92.30
15099;DHT22;33900;53.640;9.942;2022-09-29T07:35:51;11.90;92.30
15099;DHT22;33900;53.640;9.942;2022-09-29T07:38:20;11.90;92.30
15099;DHT22;33900;53.640;9.942;2022-09-29T07:40:46;11.90;92.30
15099;DHT22;33900;53.640;9.942;2022-09-29T07:43:12;12.00;92.40
15099;DHT22;33900;53.640;9.942;2022-09-29T07:45:38;12.00;92.30
15099;DHT22;33900;53.640;9.942;2022-09-29T07:48:09;12.00;92.30
15099;DHT22;33900;53.640;9.942;2022-09-29T07:50:35;12.00;92.30
15099;DHT22;33900;53.640;9.942;2022-09-29T07:53:00;12.10;92.40
15099;DHT22;33900;53.640;9.942;2022-09-29T07:55:26;12.10;92.30
15099;DHT22;33900;53.640;9.942;2022-09-29T07:57:52;12.10;92.30
15099;DHT22;33900;53.640;9.942;2022-09-29T08:00:21;12.20;92.30
15099;DHT22;33900;53.640;9.942;2022-09-29T08:02:46;12.20;92.30
15099;DHT22;33900;53.640;9.942;2022-09-29T08:05:12;12.20;92.30
15099;DHT22;33900;53.640;9.942;2022-09-29T08:07:38;12.20;92.30
15099;DHT22;33900;53.640;9.942;2022-09-29T08:10:04;12.30;92.30
15099;DHT22;33900;53.640;9.942;2022-09-29T08:12:33;12.30;92.30
15099;DHT22;33900;53.640;9.942;2022-09-29T08:14:59;12.30;92.30
15099;DHT22;33900;53.640;9.942;2022-09-29T08:17:25;12.30;92.30
15099;DHT22;33900;53.640;9.942;2022-09-29T08:19:51;12.40;92.30
15099;DHT22;33900;53.640;9.942;2022-09-29T08:25:44;12.50;92.70
15099;DHT22;33900;53.640;9.942;2022-09-29T08:28:29;12.50;92.30
15099;DHT22;33900;53.640;9.942;2022-09-29T08:31:21;12.50;92.30
15099;DHT22;33900;53.640;9.942;2022-09-29T08:33:47;12.60;92.30
15099;DHT22;33900;53.640;9.942;2022-09-29T08:36:18;12.60;92.30
15099;DHT22;33900;53.640;9.942;2022-09-29T08:38:48;12.60;92.30
15099;DHT22;33900;53.640;9.942;2022-09-29T08:41:40;12.60;92.20
15099;DHT22;33900;53.640;9.942;2022-09-29T08:44:22;12.70;92.20
15099;DHT22;33900;53.640;9.942;2022-09-29T08:46:53;12.70;92.20
15099;DHT22;33900;53.640;9.942;2022-09-29T08:49:22;12.70;92.20
15099;DHT22;33900;53.640;9.942;2022-09-29T08:51:50;12.70;92.20
15099;DHT22;33900;53.640;9.942;2022-09-29T08:54:23;12.80;92.20
15099;DHT22;33900;53.640;9.942;2022-09-29T08:56:50;12.80;92.20
15099;DHT22;33900;53.640;9.942;2022-09-29T08:59:15;12.80;92.20
15099;DHT22;33900;53.640;9.942;2022-09-29T09:09:05;12.90;92.10
15099;DHT22;33900;53.640;9.942;2022-09-29T09:11:49;13.00;92.10
15099;DHT22;33900;53.640;9.942;2022-09-29T09:17:23;13.00;92.10
15099;DHT22;33900;53.640;9.942;2022-09-29T09:20:03;13.10;92.10
15099;DHT22;33900;53.640;9.942;2022-09-29T09:25:18;13.20;92.10
15099;DHT22;33900;53.640;9.942;2022-09-29T09:27:46;13.20;92.00
15099;DHT22;33900;53.640;9.942;2022-09-29T09:30:14;13.20;92.00
15099;DHT22;33900;53.640;9.942;2022-09-29T09:32:43;13.30;92.00
15099;DHT22;33900;53.640;9.942;2022-09-29T09:35:20;13.30;92.00
15099;DHT22;33900;53.640;9.942;2022-09-29T09:37:48;13.30;92.00
15099;DHT22;33900;53.640;9.942;2022-09-29T09:40:28;13.40;91.90
15099;DHT22;33900;53.640;9.942;2022-09-29T09:43:40;13.40;91.90
15099;DHT22;33900;53.640;9.942;2022-09-29T09:49:40;13.50;91.80
15099;DHT22;33900;53.640;9.942;2022-09-29T09:52:39;13.60;91.80
15099;DHT22;33900;53.640;9.942;2022-09-29T09:55:08;13.60;91.80
15099;DHT22;33900;53.640;9.942;2022-09-29T10:01:02;13.70;91.80
15099;DHT22;33900;53.640;9.942;2022-09-29T10:03:18;13.80;91.70
15099;DHT22;33900;53.640;9.942;2022-09-29T10:06:27;13.80;91.70
15099;DHT22;33900;53.640;9.942;2022-09-29T10:08:53;13.90;91.60
15099;DHT22;33900;53.640;9.942;2022-09-29T10:11:26;13.90;91.60
15099;DHT22;33900;53.640;9.942;2022-09-29T10:14:10;13.90;91.50
15099;DHT22;33900;53.640;9.942;2022-09-29T10:16:43;14.00;91.50
15099;DHT22;33900;53.640;9.942;2022-09-29T10:19:09;14.00;91.50
15099;DHT22;33900;53.640;9.942;2022-09-29T10:21:37;14.00;91.40
15099;DHT22;33900;53.640;9.942;2022-09-29T10:24:03;14.00;91.40
15099;DHT22;33900;53.640;9.942;2022-09-29T10:26:33;14.10;91.40
15099;DHT22;33900;53.640;9.942;2022-09-29T10:31:56;14.10;91.40
15099;DHT22;33900;53.640;9.942;2022-09-29T10:34:23;14.10;91.30
15099;DHT22;33900;53.640;9.942;2022-09-29T10:42:36;14.10;91.30
15099;DHT22;33900;53.640;9.942;2022-09-29T10:45:16;14.10;91.30
15099;DHT22;33900;53.640;9.942;2022-09-29T10:47:44;14.10;91.30
15099;DHT22;33900;53.640;9.942;2022-09-29T10:50:12;14.10;91.30
15099;DHT22;33900;53.640;9.942;2022-09-29T10:52:43;14.10;91.60
15099;DHT22;33900;53.640;9.942;2022-09-29T10:55:20;14.10;91.30
15099;DHT22;33900;53.640;9.942;2022-09-29T10:57:47;14.10;91.20
15099;DHT22;33900;53.640;9.942;2022-09-29T11:00:27;14.10;91.20
15099;DHT22;33900;53.640;9.942;2022-09-29T11:02:54;14.10;91.20
15099;DHT22;33900;53.640;9.942;2022-09-29T11:05:23;14.10;91.10
15099;DHT22;33900;53.640;9.942;2022-09-29T11:07:50;14.10;91.10
15099;DHT22;33900;53.640;9.942;2022-09-29T11:10:27;14.10;91.00
15099;DHT22;33900;53.640;9.942;2022-09-29T11:12:52;14.10;91.00
15099;DHT22;33900;53.640;9.942;2022-09-29T11:15:24;14.10;91.00
15099;DHT22;33900;53.640;9.942;2022-09-29T11:17:50;14.10;91.00
15099;DHT22;33900;53.640;9.942;2022-09-29T11:20:16;14.10;91.00
15099;DHT22;33900;53.640;9.942;2022-09-29T11:27:56;14.10;91.30
15099;DHT22;33900;53.640;9.942;2022-09-29T11:30:35;14.10;91.00
15099;DHT22;33900;53.640;9.942;2022-09-29T11:38:36;14.10;91.00
15099;DHT22;33900;53.640;9.942;2022-09-29T11:41:10;14.10;91.00
15099;DHT22;33900;53.640;9.942;2022-09-29T11:44:00;14.10;91.00
15099;DHT22;33900;53.640;9.942;2022-09-29T11:49:28;14.10;91.00
15099;DHT22;33900;53.640;9.942;2022-09-29T11:54:55;14.10;91.00
15099;DHT22;33900;53.640;9.942;2022-09-29T12:00:08;14.10;91.00
15099;DHT22;33900;53.640;9.942;2022-09-29T12:05:27;14.20;91.10
15099;DHT22;33900;53.640;9.942;2022-09-29T12:13:16;14.20;91.10
15099;DHT22;33900;53.640;9.942;2022-09-29T12:15:47;14.20;91.10
15099;DHT22;33900;53.640;9.942;2022-09-29T12:18:17;14.20;91.10
15099;DHT22;33900;53.640;9.942;2022-09-29T12:20:44;14.30;91.10
15099;DHT22;33900;53.640;9.942;2022-09-29T12:23:11;14.30;91.10
15099;DHT22;33900;53.640;9.942;2022-09-29T12:25:39;14.30;91.10
15099;DHT22;33900;53.640;9.942;2022-09-29T12:28:11;14.30;91.10
15099;DHT22;33900;53.640;9.942;2022-09-29T12:30:40;14.30;91.00
15099;DHT22;33900;53.640;9.942;2022-09-29T12:38:33;14.30;90.90
15099;DHT22;33900;53.640;9.942;2022-09-29T12:41:03;14.30;90.90
15099;DHT22;33900;53.640;9.942;2022-09-29T12:43:41;14.30;90.80
15099;DHT22;33900;53.640;9.942;2022-09-29T12:46:14;14.30;90.80
15099;DHT22;33900;53.640;9.942;2022-09-29T12:51:11;14.40;90.90
15099;DHT22;33900;53.640;9.942;2022-09-29T12:53:40;14.40;90.80
15099;DHT22;33900;53.640;9.942;2022-09-29T12:56:17;14.40;90.80
15099;DHT22;33900;53.640;9.942;2022-09-29T12:58:52;14.40;90.80
15099;DHT22;33900;53.640;9.942;2022-09-29T13:01:28;14.40;90.70
15099;DHT22;33900;53.640;9.942;2022-09-29T13:04:01;14.40;90.70
15099;DHT22;33900;53.640;9.942;2022-09-29T13:06:46;14.40;90.80
15099;DHT22;33900;53.640;9.942;2022-09-29T13:09:22;14.40;90.80
15099;DHT22;33900;53.640;9.942;2022-09-29T13:11:54;14.50;90.80
15099;DHT22;33900;53.640;9.942;2022-09-29T13:19:39;14.50;90.80
15099;DHT22;33900;53.640;9.942;2022-09-29T13:29:48;14.40;90.90
15099;DHT22;33900;53.640;9.942;2022-09-29T13:32:15;14.40;90.90
15099;DHT22;33900;53.640;9.942;2022-09-29T13:34:47;14.40;91.00
15099;DHT22;33900;53.640;9.942;2022-09-29T13:37:17;14.30;90.90
15099;DHT22;33900;53.640;9.942;2022-09-29T13:45:13;14.30;91.10
15099;DHT22;33900;53.640;9.942;2022-09-29T13:47:46;14.30;91.20
15099;DHT22;33900;53.640;9.942;2022-09-29T13:58:36;14.30;91.40
15099;DHT22;33900;53.640;9.942;2022-09-29T14:01:07;14.30;91.50
15099;DHT22;33900;53.640;9.942;2022-09-29T14:03:33;14.30;91.50
15099;DHT22;33900;53.640;9.942;2022-09-29T14:06:11;14.30;91.50
15099;DHT22;33900;53.640;9.942;2022-09-29T14:08:45;14.30;91.60
15099;DHT22;33900;53.640;9.942;2022-09-29T14:14:00;14.30;91.70
15099;DHT22;33900;53.640;9.942;2022-09-29T14:16:30;14.30;91.70
15099;DHT22;33900;53.640;9.942;2022-09-29T14:19:01;14.30;91.80
15099;DHT22;33900;53.640;9.942;2022-09-29T14:21:47;14.30;92.20
15099;DHT22;33900;53.640;9.942;2022-09-29T14:32:34;14.30;91.90
15099;DHT22;33900;53.640;9.942;2022-09-29T14:35:27;14.30;91.90
15099;DHT22;33900;53.640;9.942;2022-09-29T14:38:27;14.30;92.00
15099;DHT22;33900;53.640;9.942;2022-09-29T14:41:00;14.30;92.00
15099;DHT22;33900;53.640;9.942;2022-09-29T14:43:34;14.30;92.10
15099;DHT22;33900;53.640;9.942;2022-09-29T14:46:07;14.40;92.10
15099;DHT22;33900;53.640;9.942;2022-09-29T14:52:04;14.40;92.20
15099;DHT22;33900;53.640;9.942;2022-09-29T14:54:36;14.40;92.30
15099;DHT22;33900;53.640;9.942;2022-09-29T14:57:14;14.40;92.30
15099;DHT22;33900;53.640;9.942;2022-09-29T14:59:54;14.40;92.40
15099;DHT22;33900;53.640;9.942;2022-09-29T15:02:26;14.40;92.30
15099;DHT22;33900;53.640;9.942;2022-09-29T15:04:53;14.40;92.40
15099;DHT22;33900;53.640;9.942;2022-09-29T15:07:20;14.40;92.40
15099;DHT22;33900;53.640;9.942;2022-09-29T15:09:48;14.40;92.40
15099;DHT22;33900;53.640;9.942;2022-09-29T15:12:17;14.40;92.40
15099;DHT22;33900;53.640;9.942;2022-09-29T15:14:44;14.40;92.50
15099;DHT22;33900;53.640;9.942;2022-09-29T15:20:22;14.40;92.50
15099;DHT22;33900;53.640;9.942;2022-09-29T15:25:33;14.40;92.60
15099;DHT22;33900;53.640;9.942;2022-09-29T15:28:08;14.40;92.60
15099;DHT22;33900;53.640;9.942;2022-09-29T15:30:37;14.40;92.60
15099;DHT22;33900;53.640;9.942;2022-09-29T15:33:07;14.40;92.60
15099;DHT22;33900;53.640;9.942;2022-09-29T15:35:35;14.40;92.60
15099;DHT22;33900;53.640;9.942;2022-09-29T15:40:35;14.40;92.70
15099;DHT22;33900;53.640;9.942;2022-09-29T15:46:00;14.40;92.80
15099;DHT22;33900;53.640;9.942;2022-09-29T15:48:27;14.40;92.80
15099;DHT22;33900;53.640;9.942;2022-09-29T15:50:54;14.40;92.80
15099;DHT22;33900;53.640;9.942;2022-09-29T15:53:26;14.40;92.80
15099;DHT22;33900;53.640;9.942;2022-09-29T15:55:52;14.40;92.80
15099;DHT22;33900;53.640;9.942;2022-09-29T16:00:49;14.40;92.90
15099;DHT22;33900;53.640;9.942;2022-09-29T16:03:22;14.40;92.90
15099;DHT22;33900;53.640;9.942;2022-09-29T16:06:02;14.40;92.90
15099;DHT22;33900;53.640;9.942;2022-09-29T16:08:29;14.40;92.90
15099;DHT22;33900;53.640;9.942;2022-09-29T16:11:02;14.40;93.00
15099;DHT22;33900;53.640;9.942;2022-09-29T16:13:30;14.40;93.00
15099;DHT22;33900;53.640;9.942;2022-09-29T16:16:01;14.30;93.00
15099;DHT22;33900;53.640;9.942;2022-09-29T16:20:53;14.30;93.00
15099;DHT22;33900;53.640;9.942;2022-09-29T16:23:42;14.40;93.10
15099;DHT22;33900;53.640;9.942;2022-09-29T16:28:33;14.30;93.10
15099;DHT22;33900;53.640;9.942;2022-09-29T16:31:00;14.30;93.10
15099;DHT22;33900;53.640;9.942;2022-09-29T16:33:26;14.30;93.10
15099;DHT22;33900;53.640;9.942;2022-09-29T16:35:55;14.30;93.10
15099;DHT22;33900;53.640;9.942;2022-09-29T16:38:30;14.30;93.10
15099;DHT22;33900;53.640;9.942;2022-09-29T16:41:07;14.30;93.10
15099;DHT22;33900;53.640;9.942;2022-09-29T16:43:34;14.20;93.10
15099;DHT22;33900;53.640;9.942;2022-09-29T16:46:00;14.20;93.10
15099;DHT22;33900;53.640;9.942;2022-09-29T16:48:28;14.20;93.10
15099;DHT22;33900;53.640;9.942;2022-09-29T16:50:55;14.20;93.10
15099;DHT22;33900;53.640;9.942;2022-09-29T16:53:26;14.20;93.20
15099;DHT22;33900;53.640;9.942;2022-09-29T16:55:56;14.20;93.20
15099;DHT22;33900;53.640;9.942;2022-09-29T16:58:25;14.20;93.20
15099;DHT22;33900;53.640;9.942;2022-09-29T17:00:51;14.20;93.30
15099;DHT22;33900;53.640;9.942;2022-09-29T17:03:17;14.20;93.30
15099;DHT22;33900;53.640;9.942;2022-09-29T17:05:43;14.20;93.30
15099;DHT22;33900;53.640;9.942;2022-09-29T17:08:16;14.20;93.30
15099;DHT22;33900;53.640;9.942;2022-09-29T17:10:42;14.20;93.30
15099;DHT22;33900;53.640;9.942;2022-09-29T17:13:11;14.20;93.30
15099;DHT22;33900;53.640;9.942;2022-09-29T17:15:41;14.20;93.30
15099;DHT22;33900;53.640;9.942;2022-09-29T17:18:11;14.20;93.30
15099;DHT22;33900;53.640;9.942;2022-09-29T17:20:37;14.20;93.40
15099;DHT22;33900;53.640;9.942;2022-09-29T17:23:02;14.20;93.40
15099;DHT22;33900;53.640;9.942;2022-09-29T17:25:29;14.10;93.40
15099;DHT22;33900;53.640;9.942;2022-09-29T17:27:55;14.20;93.40
15099;DHT22;33900;53.640;9.942;2022-09-29T17:30:39;14.20;93.40
15099;DHT22;33900;53.640;9.942;2022-09-29T17:33:05;14.20;93.40
15099;DHT22;33900;53.640;9.942;2022-09-29T17:35:38;14.10;93.40
15099;DHT22;33900;53.640;9.942;2022-09-29T17:38:04;14.10;93.40
15099;DHT22;33900;53.640;9.942;2022-09-29T17:40:34;14.10;93.40
15099;DHT22;33900;53.640;9.942;2022-09-29T17:43:01;14.10;93.40
15099;DHT22;33900;53.640;9.942;2022-09-29T17:45:28;14.10;93.40
15099;DHT22;33900;53.640;9.942;2022-09-29T17:48:01;14.10;93.40
15099;DHT22;33900;53.640;9.942;2022-09-29T17:52:54;14.10;93.50
15099;DHT22;33900;53.640;9.942;2022-09-29T17:55:21;14.10;93.50
15099;DHT22;33900;53.640;9.942;2022-09-29T17:57:50;14.10;93.50
15099;DHT22;33900;53.640;9.942;2022-09-29T18:00:19;14.10;93.50
15099;DHT22;33900;53.640;9.942;2022-09-29T18:02:46;14.10;93.50
15099;DHT22;33900;53.640;9.942;2022-09-29T18:05:13;14.10;93.50
15099;DHT22;33900;53.640;9.942;2022-09-29T18:07:39;14.10;93.50
15099;DHT22;33900;53.640;9.942;2022-09-29T18:10:10;14.10;93.60
15099;DHT22;33900;53.640;9.942;2022-09-29T18:12:39;14.00;93.60
15099;DHT22;33900;53.640;9.942;2022-09-29T18:15:05;14.10;93.60
15099;DHT22;33900;53.640;9.942;2022-09-29T18:17:34;14.10;93.60
15099;DHT22;33900;53.640;9.942;2022-09-29T18:20:10;14.10;93.60
15099;DHT22;33900;53.640;9.942;2022-09-29T18:22:36;14.10;93.70
15099;DHT22;33900;53.640;9.942;2022-09-29T18:25:06;14.10;93.70
15099;DHT22;33900;53.640;9.942;2022-09-29T18:27:32;14.10;93.70